Time;durP1;ratioP1;P1;durP2;ratioP2;P2;SDS_P1;SDS_P2;PMS_P1;PMS_P2;Temp;Humidity;BMP_temperature;BMP_pressure;BME280_temperature;BME280_humidity;BME280_pressure;Samples;Min_cycle;Max_cycle;Signal;HPM_P1;HPM_P2
2022/02/23 00:00:19;;;;;;;18.08;3.20;;;;;;;4.89;89.80;99903.63;5032382;28;20067;-55
2022/02/23 00:02:44;;;;;;;26.55;4.38;;;;;;;4.86;90.07;99908.47;5033802;28;20037;-54
2022/02/23 00:05:10;;;;;;;17.48;4.45;;;;;;;4.80;90.56;99911.91;5031061;28;20033;-53
2022/02/23 00:07:35;;;;;;;19.70;5.03;;;;;;;4.87;90.09;99920.75;5029426;28;20059;-54
2022/02/23 00:10:01;;;;;;;19.38;4.53;;;;;;;4.91;89.91;99922.84;5034518;28;20465;-53
2022/02/23 00:12:26;;;;;;;20.38;3.95;;;;;;;4.83;90.65;99922.13;5031523;28;20044;-53
2022/02/23 00:14:52;;;;;;;24.33;4.10;;;;;;;4.75;90.96;99928.38;5032593;28;20044;-54
2022/02/23 00:17:20;;;;;;;23.02;4.68;;;;;;;4.78;90.98;99937.81;5026576;28;20447;-54
2022/02/23 00:19:45;;;;;;;26.83;4.53;;;;;;;4.82;90.84;99934.59;5026964;28;20021;-55
2022/02/23 00:22:11;;;;;;;23.10;4.47;;;;;;;4.84;90.46;99937.91;5027597;28;20083;-54
2022/02/23 00:24:36;;;;;;;22.52;3.83;;;;;;;4.83;90.67;99941.56;5042409;28;20079;-54
2022/02/23 00:27:02;;;;;;;14.57;3.60;;;;;;;4.92;89.84;99945.75;5032344;28;20500;-55
2022/02/23 00:29:27;;;;;;;20.75;4.30;;;;;;;4.83;90.33;99946.03;5032455;28;20092;-54
2022/02/23 00:31:53;;;;;;;25.35;4.35;;;;;;;4.76;90.51;99945.97;5027678;28;20071;-54
2022/02/23 00:34:18;;;;;;;22.30;3.67;;;;;;;4.76;90.58;99953.94;5027128;28;20053;-54
2022/02/23 00:36:44;;;;;;;24.55;4.07;;;;;;;4.65;90.81;99959.75;5033579;28;20052;-54
2022/02/23 00:39:09;;;;;;;17.77;3.70;;;;;;;4.66;91.06;99958.72;5025414;28;20380;-56
2022/02/23 00:41:35;;;;;;;20.92;4.10;;;;;;;4.54;91.82;99959.19;5032598;28;20075;-55
2022/02/23 00:44:00;;;;;;;20.10;3.78;;;;;;;4.59;91.71;99958.63;5032284;28;20130;-57
2022/02/23 00:46:25;;;;;;;21.38;4.53;;;;;;;4.59;91.79;99961.28;5032419;28;20092;-55
2022/02/23 00:48:53;;;;;;;13.07;3.42;;;;;;;4.56;91.75;99971.47;5028513;28;20018;-54
2022/02/23 00:51:19;;;;;;;22.55;4.07;;;;;;;4.65;91.21;99963.22;5026292;28;20137;-54
2022/02/23 00:53:44;;;;;;;21.75;3.55;;;;;;;4.66;91.12;99966.69;5031395;28;20041;-56
2022/02/23 00:56:10;;;;;;;30.00;4.40;;;;;;;4.68;91.05;99964.66;5027577;28;20415;-58
2022/02/23 00:58:35;;;;;;;20.65;3.28;;;;;;;4.75;89.68;99965.56;5032762;28;20373;-55
2022/02/23 01:01:01;;;;;;;20.00;3.72;;;;;;;4.83;89.72;99968.09;5026920;28;20399;-56
2022/02/23 01:03:26;;;;;;;20.58;3.80;;;;;;;4.71;89.96;99970.41;5027089;28;20033;-54
2022/02/23 01:05:52;;;;;;;12.65;3.80;;;;;;;4.66;90.47;99966.69;5027102;28;20403;-54
2022/02/23 01:08:17;;;;;;;18.95;4.47;;;;;;;4.63;90.40;99959.91;5037651;28;20032;-54
2022/02/23 01:10:43;;;;;;;13.45;3.50;;;;;;;4.60;90.16;99973.56;5035758;28;20120;-55
2022/02/23 01:13:08;;;;;;;24.80;3.50;;;;;;;4.68;89.21;99985.91;5032695;28;20048;-54
2022/02/23 01:15:34;;;;;;;16.92;3.65;;;;;;;4.76;88.63;99983.13;5036551;28;20041;-54
2022/02/23 01:17:59;;;;;;;16.02;3.65;;;;;;;4.74;88.41;99980.69;5033814;28;20506;-53
2022/02/23 01:20:24;;;;;;;25.05;3.42;;;;;;;4.74;88.53;99985.16;5029397;28;20064;-53
2022/02/23 01:22:55;;;;;;;18.98;3.25;;;;;;;4.66;89.34;99994.06;5037113;28;20030;-54
2022/02/23 01:25:21;;;;;;;15.27;3.35;;;;;;;4.53;89.51;99996.53;5035126;28;20387;-55
2022/02/23 01:27:46;;;;;;;14.35;3.33;;;;;;;4.48;90.06;99997.09;5029958;28;20032;-54
2022/02/23 01:30:12;;;;;;;16.50;3.35;;;;;;;4.49;89.39;99997.91;5032353;28;20041;-54
2022/02/23 01:32:37;;;;;;;19.15;3.70;;;;;;;4.45;89.33;99996.66;5033298;28;20017;-54
2022/02/23 01:35:03;;;;;;;18.85;3.10;;;;;;;4.49;89.28;99998.75;5032438;28;20033;-55
2022/02/23 01:37:28;;;;;;;17.67;3.10;;;;;;;4.44;89.34;99995.84;5033726;28;20018;-54
2022/02/23 01:39:54;;;;;;;19.42;3.40;;;;;;;4.50;88.92;100008.34;5037006;28;20028;-54
2022/02/23 01:42:19;;;;;;;13.43;3.28;;;;;;;4.53;88.49;100017.78;5036214;28;20064;-54
2022/02/23 01:44:45;;;;;;;18.17;3.90;;;;;;;4.46;89.19;100020.34;5033152;28;20050;-54
2022/02/23 01:47:10;;;;;;;22.08;3.60;;;;;;;4.44;89.16;100027.69;5030184;28;20392;-52
2022/02/23 01:49:35;;;;;;;20.77;5.05;;;;;;;4.47;89.40;100032.63;5030034;28;20095;-54
2022/02/23 01:52:01;;;;;;;14.73;3.30;;;;;;;4.60;88.33;100041.78;5036562;28;20084;-54
2022/02/23 01:54:26;;;;;;;22.92;3.92;;;;;;;4.55;88.63;100039.66;5029350;28;20048;-54
2022/02/23 01:56:52;;;;;;;13.15;3.22;;;;;;;4.43;89.09;100049.09;5040199;28;20055;-54
2022/02/23 01:59:17;;;;;;;15.38;3.60;;;;;;;4.33;89.90;100046.69;5037168;28;20024;-55
2022/02/23 02:01:43;;;;;;;27.20;4.05;;;;;;;4.36;89.33;100061.44;5036365;28;20442;-53
2022/02/23 02:04:08;;;;;;;23.90;3.33;;;;;;;4.44;88.89;100054.22;5037088;28;20028;-54
2022/02/23 02:06:34;;;;;;;20.25;4.38;;;;;;;4.59;87.96;100056.03;5029941;28;20033;-54
2022/02/23 02:08:59;;;;;;;20.27;3.90;;;;;;;4.48;88.28;100060.81;5032361;28;20025;-53
2022/02/23 02:11:24;;;;;;;19.77;3.83;;;;;;;4.42;88.59;100076.63;5035653;28;20030;-55
2022/02/23 02:13:50;;;;;;;28.23;4.07;;;;;;;4.36;89.09;100072.88;5034354;28;20029;-54
2022/02/23 02:16:15;;;;;;;18.38;3.45;;;;;;;4.33;89.33;100073.25;5035343;28;20037;-55
2022/02/23 02:18:40;;;;;;;15.60;2.83;;;;;;;4.35;89.27;100081.84;5029951;28;20029;-54
2022/02/23 02:21:06;;;;;;;24.70;3.95;;;;;;;4.41;88.60;100091.72;5029128;28;20396;-55
2022/02/23 02:23:31;;;;;;;29.98;3.85;;;;;;;4.52;87.15;100096.63;5037928;28;20350;-54
2022/02/23 02:25:57;;;;;;;20.67;3.53;;;;;;;4.54;87.25;100083.97;5044315;28;20049;-54
2022/02/23 02:28:22;;;;;;;15.80;3.50;;;;;;;4.51;87.52;100089.63;5032255;28;20029;-56
2022/02/23 02:30:48;;;;;;;24.75;3.25;;;;;;;4.61;86.64;100085.91;5030675;28;20060;-57
2022/02/23 02:33:13;;;;;;;16.95;3.22;;;;;;;4.56;87.02;100088.28;5029159;28;20033;-56
2022/02/23 02:35:38;;;;;;;14.90;3.33;;;;;;;4.61;86.70;100091.22;5040480;28;20227;-55
2022/02/23 02:38:04;;;;;;;21.55;3.80;;;;;;;4.59;87.08;100088.72;5033977;28;20028;-55
2022/02/23 02:40:31;;;;;;;22.40;4.15;;;;;;;4.62;86.96;100090.19;5032543;28;20376;-56
2022/02/23 02:42:56;;;;;;;30.40;3.97;;;;;;;4.64;86.34;100085.53;5029646;28;20045;-56
2022/02/23 02:45:23;;;;;;;22.45;4.40;;;;;;;4.82;84.24;100093.13;5032500;28;20048;-53
2022/02/23 02:47:48;;;;;;;25.30;5.75;;;;;;;4.81;84.74;100097.63;5033379;28;20064;-54
2022/02/23 02:50:14;;;;;;;24.55;3.75;;;;;;;4.76;84.94;100097.34;5027671;28;20032;-53
2022/02/23 02:52:39;;;;;;;13.57;2.92;;;;;;;4.83;83.79;100090.28;5034902;28;20475;-56
2022/02/23 02:55:05;;;;;;;22.50;3.15;;;;;;;4.82;83.93;100085.16;5035561;28;20034;-54
2022/02/23 02:57:30;;;;;;;24.95;3.63;;;;;;;4.81;84.13;100087.00;5031831;28;20384;-54
2022/02/23 02:59:56;;;;;;;18.52;3.47;;;;;;;4.76;83.84;100095.50;5029619;28;20113;-54
2022/02/23 03:02:21;;;;;;;13.98;3.20;;;;;;;4.74;84.40;100100.19;5033363;28;20033;-54
2022/02/23 03:04:47;;;;;;;16.50;3.38;;;;;;;4.64;84.19;100090.84;5029267;28;20033;-54
2022/02/23 03:07:12;;;;;;;17.20;3.00;;;;;;;4.50;85.12;100089.84;5034362;28;20036;-52
2022/02/23 03:09:37;;;;;;;23.33;3.95;;;;;;;4.50;84.84;100095.97;5033253;28;20531;-55
2022/02/23 03:12:03;;;;;;;11.48;2.83;;;;;;;4.39;85.09;100088.44;5034264;28;20045;-55
2022/02/23 03:14:28;;;;;;;18.67;3.63;;;;;;;4.31;85.17;100093.81;5028926;28;20120;-54
2022/02/23 03:16:54;;;;;;;31.40;3.45;;;;;;;4.28;85.68;100097.66;5027412;28;20045;-54
2022/02/23 03:19:19;;;;;;;22.52;3.28;;;;;;;4.28;85.63;100104.81;5028611;28;20400;-53
2022/02/23 03:21:45;;;;;;;14.75;3.05;;;;;;;4.20;86.64;100105.72;5029417;28;20377;-54
2022/02/23 03:24:10;;;;;;;25.00;3.85;;;;;;;4.07;86.20;100105.50;5028887;28;20380;-55
2022/02/23 03:26:35;;;;;;;24.27;3.20;;;;;;;3.91;87.19;100101.13;5026925;28;20565;-55
2022/02/23 03:29:01;;;;;;;24.40;3.53;;;;;;;3.85;87.22;100107.16;5034253;28;20037;-54
2022/02/23 03:31:26;;;;;;;21.05;4.22;;;;;;;3.76;87.88;100113.50;5037716;28;20041;-54
2022/02/23 03:33:52;;;;;;;26.02;4.30;;;;;;;3.72;87.84;100115.72;5037475;28;20021;-54
2022/02/23 03:36:17;;;;;;;14.70;3.22;;;;;;;3.76;87.69;100116.97;5031847;28;20484;-54
2022/02/23 03:38:43;;;;;;;22.25;3.45;;;;;;;3.72;87.82;100118.34;5029142;28;20446;-55
2022/02/23 03:41:09;;;;;;;22.83;3.38;;;;;;;3.85;87.20;100125.72;5029972;28;20034;-54
2022/02/23 03:43:34;;;;;;;19.65;3.95;;;;;;;3.76;87.28;100124.94;5032209;28;20109;-54
2022/02/23 03:46:00;;;;;;;24.63;3.55;;;;;;;3.64;88.25;100136.94;5033178;28;20095;-54
2022/02/23 03:48:25;;;;;;;24.92;4.65;;;;;;;3.67;88.00;100136.63;5037247;28;20070;-54
2022/02/23 03:50:51;;;;;;;21.98;4.40;;;;;;;3.60;88.19;100141.78;5026978;28;20116;-55
2022/02/23 03:53:16;;;;;;;17.45;3.75;;;;;;;3.52;88.88;100139.19;5028940;28;20083;-54
2022/02/23 03:55:41;;;;;;;18.67;3.85;;;;;;;3.50;88.82;100148.31;5033657;28;20041;-55
2022/02/23 03:58:08;;;;;;;20.05;4.00;;;;;;;3.52;89.06;100149.78;5029162;28;20091;-54
2022/02/23 04:00:34;;;;;;;22.75;4.07;;;;;;;3.47;89.29;100157.44;5040325;28;20046;-55
2022/02/23 04:02:59;;;;;;;22.05;3.63;;;;;;;3.40;89.41;100156.47;5032199;28;20395;-53
2022/02/23 04:05:24;;;;;;;20.77;4.03;;;;;;;3.35;89.83;100156.16;5026559;28;20033;-54
2022/02/23 04:07:50;;;;;;;17.10;3.63;;;;;;;3.29;89.76;100167.44;5028535;28;20087;-52
2022/02/23 04:10:19;;;;;;;18.50;3.60;;;;;;;3.31;89.88;100173.41;5035229;28;20462;-53
2022/02/23 04:12:45;;;;;;;28.90;4.03;;;;;;;3.30;89.89;100175.22;5031738;28;20029;-52
2022/02/23 04:15:11;;;;;;;26.65;4.25;;;;;;;3.33;89.72;100182.00;5035542;28;20037;-55
2022/02/23 04:17:37;;;;;;;31.60;4.57;;;;;;;3.38;89.03;100190.28;5028125;28;20070;-53
2022/02/23 04:20:03;;;;;;;26.23;3.65;;;;;;;3.29;89.52;100186.00;5032254;28;20136;-54
2022/02/23 04:22:29;;;;;;;16.10;3.47;;;;;;;3.31;89.54;100195.41;5027857;28;20519;-54
2022/02/23 04:24:54;;;;;;;23.38;3.60;;;;;;;3.27;89.28;100202.09;5028488;28;20029;-53
2022/02/23 04:27:19;;;;;;;16.27;3.53;;;;;;;3.23;90.24;100203.41;5031577;28;20041;-55
2022/02/23 04:29:46;;;;;;;17.27;3.38;;;;;;;3.15;90.23;100212.22;5036522;28;20056;-54
2022/02/23 04:32:11;;;;;;;15.45;3.63;;;;;;;3.15;90.57;100206.91;5037286;28;20045;-52
2022/02/23 04:34:37;;;;;;;21.17;4.13;;;;;;;3.18;90.19;100219.81;5037677;28;20494;-55
2022/02/23 04:37:02;;;;;;;21.05;4.15;;;;;;;3.11;90.53;100221.47;5030398;28;20053;-53
2022/02/23 04:39:28;;;;;;;18.05;4.15;;;;;;;3.11;90.16;100225.97;5032254;28;20053;-55
2022/02/23 04:41:53;;;;;;;12.30;4.18;;;;;;;3.08;90.27;100231.59;5014467;28;20041;-54
2022/02/23 04:44:19;;;;;;;18.75;4.20;;;;;;;2.99;90.67;100228.13;5034279;28;20041;-54
2022/02/23 04:46:44;;;;;;;19.73;4.80;;;;;;;2.86;91.16;100228.66;5035084;28;20041;-54
2022/02/23 04:49:10;;;;;;;23.13;4.38;;;;;;;2.75;91.88;100240.44;5031970;28;20029;-54
2022/02/23 04:51:36;;;;;;;19.58;3.60;;;;;;;2.66;92.81;100243.25;5032670;28;20049;-54
2022/02/23 04:54:01;;;;;;;19.45;4.00;;;;;;;2.62;92.91;100253.34;5031944;28;20072;-54
2022/02/23 04:56:27;;;;;;;21.15;4.38;;;;;;;2.59;93.24;100246.53;5031746;28;20038;-55
2022/02/23 04:58:53;;;;;;;19.33;3.83;;;;;;;2.51;93.49;100241.25;5033185;28;20046;-55
2022/02/23 05:01:18;;;;;;;16.48;4.30;;;;;;;2.60;93.87;100255.31;5040996;28;20033;-53
2022/02/23 05:03:44;;;;;;;24.83;4.60;;;;;;;2.54;93.77;100256.78;5041039;28;20462;-51
2022/02/23 05:06:09;;;;;;;15.75;4.05;;;;;;;2.57;94.00;100250.34;5034653;28;20041;-54
2022/02/23 05:08:35;;;;;;;35.05;5.10;;;;;;;2.53;93.82;100249.84;5039230;28;20194;-53
2022/02/23 05:11:01;;;;;;;20.92;4.40;;;;;;;2.47;94.27;100253.19;5035585;28;20503;-54
2022/02/23 05:13:26;;;;;;;29.30;4.53;;;;;;;2.48;94.37;100254.00;5034521;28;20029;-53
2022/02/23 05:15:56;;;;;;;33.75;4.80;;;;;;;2.47;94.52;100252.31;5036437;28;20038;-52
2022/02/23 05:18:23;;;;;;;36.97;4.80;;;;;;;2.40;94.90;100269.84;5038016;28;20026;-53
2022/02/23 05:20:48;;;;;;;28.50;4.97;;;;;;;2.40;95.28;100259.25;5039955;28;20080;-54
2022/02/23 05:23:15;;;;;;;21.13;5.05;;;;;;;2.36;95.09;100270.19;5034350;28;20517;-54
2022/02/23 05:25:40;;;;;;;28.02;5.25;;;;;;;2.40;95.06;100269.84;5030451;28;20494;-53
2022/02/23 05:28:05;;;;;;;12.65;4.20;;;;;;;2.34;95.22;100280.09;5035091;28;20035;-54
2022/02/23 05:30:31;;;;;;;24.35;5.30;;;;;;;2.35;95.11;100279.13;5031037;28;20037;-54
2022/02/23 05:32:57;;;;;;;23.67;4.57;;;;;;;2.32;95.12;100281.25;5039425;28;20025;-51
2022/02/23 05:35:22;;;;;;;26.80;4.75;;;;;;;2.25;95.11;100294.31;5029645;28;20499;-54
2022/02/23 05:37:48;;;;;;;24.02;5.32;;;;;;;2.28;95.08;100288.69;5034202;28;20483;-54
2022/02/23 05:40:13;;;;;;;25.70;5.07;;;;;;;2.30;94.68;100292.00;5030163;28;20136;-54
2022/02/23 05:42:39;;;;;;;18.88;4.00;;;;;;;2.37;94.16;100302.75;5030479;28;20084;-54
2022/02/23 05:45:05;;;;;;;21.70;4.78;;;;;;;2.21;93.82;100295.63;5037106;28;20103;-53
2022/02/23 05:47:30;;;;;;;21.10;4.75;;;;;;;2.23;94.10;100298.13;5040549;28;20033;-51
2022/02/23 05:49:56;;;;;;;24.48;4.60;;;;;;;2.10;94.08;100301.22;5032130;28;20038;-52
2022/02/23 05:52:21;;;;;;;24.90;5.32;;;;;;;2.02;94.86;100301.19;5029810;28;20041;-53
2022/02/23 05:54:47;;;;;;;23.92;4.55;;;;;;;1.93;94.87;100298.53;5033948;28;20538;-55
2022/02/23 05:57:13;;;;;;;27.00;4.75;;;;;;;1.88;95.30;100305.28;5035404;28;20064;-52
2022/02/23 05:59:39;;;;;;;16.75;4.65;;;;;;;1.93;94.52;100311.75;5031126;28;20033;-54
2022/02/23 06:02:04;;;;;;;22.77;4.22;;;;;;;1.84;95.02;100315.34;5034302;28;20394;-53
2022/02/23 06:04:30;;;;;;;17.73;5.22;;;;;;;1.87;94.61;100317.69;5032247;28;20029;-54
2022/02/23 06:06:55;;;;;;;32.85;5.38;;;;;;;1.77;94.92;100322.25;5031646;28;20041;-54
2022/02/23 06:09:21;;;;;;;15.98;3.97;;;;;;;1.81;94.94;100328.06;5030094;28;20132;-55
2022/02/23 06:11:46;;;;;;;16.48;4.03;;;;;;;1.88;94.36;100324.63;5031304;28;20045;-54
2022/02/23 06:14:12;;;;;;;27.08;4.82;;;;;;;1.93;93.73;100327.59;5037801;28;20033;-55
2022/02/23 06:16:37;;;;;;;16.98;4.05;;;;;;;1.98;93.58;100329.78;5030084;28;20053;-55
2022/02/23 06:19:03;;;;;;;14.88;4.13;;;;;;;2.14;92.85;100329.00;5034334;28;20064;-56
2022/02/23 06:21:28;;;;;;;22.60;4.80;;;;;;;1.93;93.10;100332.91;5036813;28;20045;-55
2022/02/23 06:23:54;;;;;;;27.15;5.38;;;;;;;1.99;93.36;100336.72;5029251;28;20396;-54
2022/02/23 06:26:19;;;;;;;26.35;5.35;;;;;;;1.96;92.81;100337.03;5029562;28;20041;-54
2022/02/23 06:28:45;;;;;;;25.70;5.30;;;;;;;1.86;93.52;100342.44;5030015;28;20037;-53
2022/02/23 06:31:10;;;;;;;21.75;4.85;;;;;;;1.77;94.26;100345.19;5034954;28;20090;-54
2022/02/23 06:33:38;;;;;;;16.33;6.00;;;;;;;1.86;94.28;100336.34;5030491;28;20033;-55
2022/02/23 06:36:04;;;;;;;21.27;5.53;;;;;;;1.87;94.28;100341.47;5036206;28;20061;-54
2022/02/23 06:38:29;;;;;;;33.78;6.13;;;;;;;1.75;94.53;100345.38;5039914;28;20408;-54
2022/02/23 06:40:56;;;;;;;24.83;5.68;;;;;;;1.67;94.97;100347.97;5035138;28;20049;-54
2022/02/23 06:43:21;;;;;;;15.07;5.28;;;;;;;1.48;94.94;100349.84;5030258;28;20035;-54
2022/02/23 06:45:48;;;;;;;24.23;6.05;;;;;;;1.55;95.37;100349.22;5028860;28;20053;-53
2022/02/23 06:48:13;;;;;;;14.63;5.13;;;;;;;1.45;94.92;100350.16;5038998;28;20079;-53
2022/02/23 06:50:41;;;;;;;35.78;5.55;;;;;;;1.58;95.53;100351.56;5043776;28;20049;-51
2022/02/23 06:53:07;;;;;;;20.67;5.35;;;;;;;1.59;94.95;100356.69;5035330;28;20076;-53
2022/02/23 06:55:33;;;;;;;27.40;5.60;;;;;;;1.59;94.90;100366.44;5026814;28;20057;-54
2022/02/23 06:57:59;;;;;;;13.80;4.50;;;;;;;1.66;95.06;100367.47;5033451;28;20029;-54
2022/02/23 07:00:25;;;;;;;17.90;4.78;;;;;;;1.72;94.81;100372.09;5033290;28;20049;-54
2022/02/23 07:02:52;;;;;;;18.02;4.65;;;;;;;1.73;94.89;100381.72;5033509;28;20025;-54
2022/02/23 07:05:19;;;;;;;20.70;3.83;;;;;;;1.76;94.81;100384.03;5042732;28;20112;-54
2022/02/23 07:07:45;;;;;;;24.08;5.45;;;;;;;2.14;93.18;100381.88;5033628;28;20026;-52
2022/02/23 07:10:18;;;;;;;26.55;9.23;;;;;;;2.15;92.13;100386.22;5029277;28;20032;-52
2022/02/23 07:12:44;;;;;;;38.55;9.02;;;;;;;2.38;91.84;100394.38;5028802;28;20057;-54
2022/02/23 07:15:09;;;;;;;36.95;12.85;;;;;;;2.64;90.78;100388.16;5027098;28;20091;-53
2022/02/23 07:17:35;;;;;;;17.90;4.82;;;;;;;3.11;90.16;100390.19;5031481;28;20029;-54
2022/02/23 07:20:00;;;;;;;26.25;6.25;;;;;;;3.14;89.19;100390.69;5033966;28;20396;-53
2022/02/23 07:22:26;;;;;;;16.02;4.80;;;;;;;3.04;89.58;100395.31;5027917;28;20052;-54
2022/02/23 07:24:51;;;;;;;19.27;4.78;;;;;;;3.22;89.07;100396.00;5028353;28;20030;-52
2022/02/23 07:27:17;;;;;;;26.13;5.13;;;;;;;3.33;88.25;100394.00;5034213;28;20033;-54
2022/02/23 07:29:45;;;;;;;16.40;4.47;;;;;;;3.48;87.90;100397.63;5032424;28;20028;-53
2022/02/23 07:32:11;;;;;;;16.85;4.65;;;;;;;3.45;87.81;100397.97;5038251;28;20384;-54
2022/02/23 07:34:39;;;;;;;15.02;4.70;;;;;;;3.85;86.70;100401.53;5034930;28;20079;-53
2022/02/23 07:37:04;;;;;;;16.95;5.03;;;;;;;3.92;86.29;100413.13;5031213;28;20087;-53
2022/02/23 07:39:30;;;;;;;13.88;3.90;;;;;;;3.83;85.76;100417.63;5033897;28;20029;-53
2022/02/23 07:41:55;;;;;;;21.92;5.18;;;;;;;4.02;84.90;100411.13;5028291;28;20033;-55
2022/02/23 07:44:21;;;;;;;18.10;4.30;;;;;;;4.11;84.86;100415.38;5034690;28;20046;-55
2022/02/23 07:46:46;;;;;;;19.10;5.07;;;;;;;4.62;84.00;100416.81;5029059;28;20038;-53
2022/02/23 07:49:13;;;;;;;13.05;4.03;;;;;;;4.44;83.34;100417.06;5032969;28;20094;-54
2022/02/23 07:51:38;;;;;;;15.82;4.45;;;;;;;4.15;84.25;100415.06;5027332;28;20052;-54
2022/02/23 07:54:04;;;;;;;16.67;4.72;;;;;;;4.59;83.75;100417.16;5029017;28;20034;-54
2022/02/23 07:56:30;;;;;;;24.90;4.72;;;;;;;4.96;82.77;100414.59;5027702;28;20041;-55
2022/02/23 07:58:55;;;;;;;18.63;4.20;;;;;;;4.85;81.52;100416.84;5027845;28;20071;-54
2022/02/23 08:01:32;;;;;;;24.35;3.80;;;;;;;4.63;83.10;100413.16;5027226;28;20533;-54
2022/02/23 08:03:57;;;;;;;15.15;4.93;;;;;;;5.34;81.88;100419.97;5032008;28;20032;-54
2022/02/23 08:06:23;;;;;;;18.73;5.43;;;;;;;4.95;82.06;100418.28;5030503;28;20101;-54
2022/02/23 08:08:53;;;;;;;17.67;5.10;;;;;;;4.85;82.43;100415.03;5036497;28;20033;-54
2022/02/23 08:11:19;;;;;;;22.58;5.97;;;;;;;6.06;79.64;100421.28;5028366;28;20079;-54
2022/02/23 08:13:45;;;;;;;15.27;4.40;;;;;;;5.62;79.62;100414.06;5040552;28;20482;-55
2022/02/23 08:21:42;;;;;;;12.13;3.97;;;;;;;5.45;80.90;100428.53;5031659;28;20132;-53
2022/02/23 08:24:07;;;;;;;17.55;5.13;;;;;;;5.30;81.74;100428.47;5036502;28;20033;-52
2022/02/23 08:26:33;;;;;;;23.58;5.40;;;;;;;5.92;79.85;100438.06;5030586;28;20037;-53
2022/02/23 08:28:59;;;;;;;14.98;4.80;;;;;;;5.61;80.57;100434.50;5033938;28;20041;-53
2022/02/23 08:31:25;;;;;;;23.33;5.00;;;;;;;6.74;78.16;100439.75;5032509;28;20037;-53
2022/02/23 08:33:50;;;;;;;15.15;5.25;;;;;;;6.00;79.47;100438.00;5024310;28;20361;-54
2022/02/23 08:36:15;;;;;;;17.83;5.22;;;;;;;6.94;75.48;100440.81;5032944;28;20368;-54
2022/02/23 08:38:44;;;;;;;19.65;5.47;;;;;;;6.28;79.32;100442.66;5028889;28;20036;-57
2022/02/23 08:41:11;;;;;;;16.20;5.65;;;;;;;7.05;77.38;100448.28;5027825;28;20449;-54
2022/02/23 08:43:36;;;;;;;15.25;5.32;;;;;;;7.31;75.51;100447.75;5031057;28;20048;-54
2022/02/23 08:46:02;;;;;;;20.20;5.57;;;;;;;6.46;78.41;100448.44;5027883;28;20460;-53
2022/02/23 08:48:27;;;;;;;22.45;5.65;;;;;;;6.78;78.53;100446.34;5032740;28;20029;-56
2022/02/23 08:50:53;;;;;;;23.65;5.72;;;;;;;7.56;75.54;100450.81;5030277;28;20487;-58
2022/02/23 08:53:18;;;;;;;17.30;5.60;;;;;;;7.63;75.98;100455.38;5028804;28;20053;-55
2022/02/23 08:55:44;;;;;;;13.63;4.80;;;;;;;7.01;76.25;100452.34;5031066;28;20494;-55
2022/02/23 08:58:13;;;;;;;20.42;5.25;;;;;;;6.88;78.94;100441.53;5027990;28;20037;-54
2022/02/23 09:00:39;;;;;;;15.20;5.70;;;;;;;7.72;76.37;100451.56;5030755;28;20045;-56
2022/02/23 09:03:04;;;;;;;17.08;5.28;;;;;;;8.10;74.35;100457.34;5032454;28;20107;-55
2022/02/23 09:05:30;;;;;;;15.07;5.03;;;;;;;6.35;80.30;100452.41;5031544;28;20045;-53
2022/02/23 09:07:55;;;;;;;20.23;5.38;;;;;;;7.01;78.05;100462.19;5031076;28;20075;-53
2022/02/23 09:10:21;;;;;;;17.52;5.05;;;;;;;7.22;76.74;100462.22;5027196;28;20042;-55
2022/02/23 09:12:47;;;;;;;17.50;5.07;;;;;;;7.63;76.25;100466.06;5027142;28;20067;-54
2022/02/23 09:15:13;;;;;;;23.48;5.85;;;;;;;7.27;76.94;100465.13;5027485;28;20037;-54
2022/02/23 09:17:39;;;;;;;17.25;5.55;;;;;;;7.67;76.19;100468.16;5030959;28;20051;-53
2022/02/23 09:20:05;;;;;;;29.65;6.18;;;;;;;8.00;74.43;100473.72;5028071;28;20052;-56
2022/02/23 09:22:30;;;;;;;11.45;4.95;;;;;;;8.05;75.48;100480.34;5031854;28;20052;-54
2022/02/23 09:24:55;;;;;;;14.27;5.47;;;;;;;8.28;74.84;100480.88;5034037;28;20017;-53
2022/02/23 09:27:21;;;;;;;18.67;5.25;;;;;;;8.93;72.06;100477.91;5028340;28;20472;-55
2022/02/23 09:29:46;;;;;;;21.08;5.30;;;;;;;9.07;71.26;100479.59;5030690;28;20032;-54
2022/02/23 09:32:12;;;;;;;20.60;5.30;;;;;;;9.38;70.50;100472.84;5029695;28;20438;-55
2022/02/23 09:34:37;;;;;;;18.35;4.97;;;;;;;9.48;69.66;100475.97;5030870;28;20099;-54
2022/02/23 09:37:03;;;;;;;20.92;6.05;;;;;;;9.44;69.67;100475.56;5029395;28;20041;-55
2022/02/23 09:39:28;;;;;;;18.17;4.82;;;;;;;8.69;70.51;100472.09;5031697;28;20380;-54
2022/02/23 09:41:55;;;;;;;13.80;4.75;;;;;;;9.33;69.93;100478.00;5036864;28;20510;-54
2022/02/23 09:44:21;;;;;;;15.38;5.07;;;;;;;9.27;70.72;100474.28;5037059;28;20433;-55
2022/02/23 09:46:47;;;;;;;17.98;5.05;;;;;;;8.98;70.71;100475.44;5039319;28;20044;-53
2022/02/23 09:49:13;;;;;;;21.08;4.95;;;;;;;9.75;68.84;100468.75;5036471;28;20398;-54
2022/02/23 09:51:38;;;;;;;16.92;5.43;;;;;;;9.79;70.26;100470.00;5031949;28;20050;-54
2022/02/23 09:54:04;;;;;;;25.20;6.18;;;;;;;9.01;71.66;100464.34;5035730;28;20609;-55
2022/02/23 09:56:32;;;;;;;22.52;6.50;;;;;;;8.52;74.34;100471.59;5033272;28;20045;-54
2022/02/23 09:59:00;;;;;;;20.17;5.38;;;;;;;9.76;70.64;100458.88;5036511;28;20459;-55
2022/02/23 10:01:27;;;;;;;18.00;5.57;;;;;;;9.12;69.80;100460.28;5029391;28;20037;-53
2022/02/23 10:03:53;;;;;;;14.20;5.07;;;;;;;9.58;68.71;100459.50;5030786;28;20056;-54
2022/02/23 10:06:32;;;;;;;19.58;5.55;;;;;;;10.33;67.22;100457.34;5033003;28;20029;-53
2022/02/23 10:09:11;;;;;;;22.67;5.40;;;;;;;10.69;65.06;100456.00;5037192;28;20040;-53
2022/02/23 10:11:37;;;;;;;22.08;5.68;;;;;;;9.84;68.52;100453.31;5038823;28;20044;-54
2022/02/23 10:14:02;;;;;;;26.80;5.93;;;;;;;10.89;64.84;100456.72;5028440;28;20039;-54
2022/02/23 10:16:35;;;;;;;24.00;5.30;;;;;;;10.97;64.90;100453.78;5031613;28;20136;-54
2022/02/23 10:19:09;;;;;;;18.00;5.22;;;;;;;10.33;66.90;100455.53;5030016;28;20025;-54
2022/02/23 10:21:47;;;;;;;21.95;5.65;;;;;;;10.69;66.36;100456.00;5032457;28;20045;-54
2022/02/23 10:24:40;;;;;;;21.58;5.10;;;;;;;9.91;66.59;100464.84;5034903;28;20049;-54
2022/02/23 10:27:05;;;;;;;16.08;5.00;;;;;;;10.66;64.75;100456.41;5028929;28;20610;-54
2022/02/23 10:29:47;;;;;;;21.10;5.38;;;;;;;10.86;64.08;100451.78;5034995;28;20112;-55
2022/02/23 10:32:14;;;;;;;22.05;5.50;;;;;;;11.08;64.76;100451.44;5037068;28;20578;-52
2022/02/23 10:34:39;;;;;;;22.83;5.28;;;;;;;10.29;64.12;100448.09;5028712;28;20053;-54
2022/02/23 10:37:06;;;;;;;25.33;5.82;;;;;;;10.58;63.45;100450.28;5037782;28;20140;-53
2022/02/23 10:39:35;;;;;;;25.52;5.80;;;;;;;10.12;64.66;100445.84;5031818;28;20408;-52
2022/02/23 10:42:08;;;;;;;30.45;4.68;;;;;;;9.91;66.43;100441.56;5032247;28;20492;-57
2022/02/23 10:44:34;;;;;;;24.50;5.60;;;;;;;10.51;65.81;100441.44;5030326;28;20488;-55
2022/02/23 10:47:00;;;;;;;20.83;5.10;;;;;;;10.74;65.26;100432.06;5034239;28;20136;-52
2022/02/23 10:49:26;;;;;;;20.98;4.78;;;;;;;10.20;66.08;100426.03;5031618;28;20466;-54
2022/02/23 10:51:55;;;;;;;23.15;5.40;;;;;;;9.60;69.90;100430.66;5035558;28;20056;-54
2022/02/23 10:54:22;;;;;;;18.45;5.53;;;;;;;8.87;71.59;100430.59;5035683;28;20373;-54
2022/02/23 10:56:48;;;;;;;20.15;4.70;;;;;;;8.96;71.81;100430.22;5036572;28;20097;-52
2022/02/23 10:59:17;;;;;;;25.25;5.53;;;;;;;9.24;70.90;100426.56;5027900;28;20088;-54
2022/02/23 11:01:44;;;;;;;23.88;6.90;;;;;;;9.52;70.03;100429.03;5029739;28;20045;-56
2022/02/23 11:04:09;;;;;;;22.60;5.95;;;;;;;9.66;68.65;100422.66;5029050;28;20084;-52
2022/02/23 11:06:35;;;;;;;17.17;4.65;;;;;;;9.96;68.03;100422.19;5010150;28;20458;-51
2022/02/23 11:09:01;;;;;;;25.15;5.47;;;;;;;9.46;70.64;100425.34;5033973;28;20463;-54
2022/02/23 11:11:27;;;;;;;16.10;4.18;;;;;;;9.37;71.04;100415.03;5035737;28;20114;-54
2022/02/23 11:13:53;;;;;;;22.48;5.07;;;;;;;9.61;69.61;100416.25;5036752;28;20034;-54
2022/02/23 11:16:19;;;;;;;24.60;4.72;;;;;;;9.84;68.01;100407.78;5036316;28;20086;-54
2022/02/23 11:18:45;;;;;;;21.17;4.78;;;;;;;9.59;69.94;100408.44;5034368;28;20052;-54
2022/02/23 11:21:14;;;;;;;19.13;5.22;;;;;;;9.08;72.47;100417.06;5028334;28;20034;-55
2022/02/23 11:23:39;;;;;;;13.18;3.75;;;;;;;10.12;67.24;100411.00;5029853;28;20073;-54
2022/02/23 11:26:05;;;;;;;19.13;4.38;;;;;;;10.31;66.57;100408.53;5035722;28;20036;-55